Frankfort, Ohio
Current Conditions -  °F | °C
As of 11:54 PM on Thursday 30 Oct 2014 (Local Time) from KRZT Reporting Station
Scattered Clouds Scattered Clouds  
Wind Chill: 32°   Ceiling: Unl
Heat Index: 32°   Visibility: 10mi
Dew Point: 32°   Wind: 3mph
Humidity: 100%   Direction: 240°WSW
Pressure: 30.06"   Gusts: NA
Location:  39.4°N, 83.18°W
Report Text: KRZT 310354Z AUTO 24003KT 10SM SCT049 00/00 A3006 RMK AO2
Loading
Personal Weather Stations






























Interactive Weather Map
Tropical Storm Tracking
New forecast layout! Learn more

10-Day Weather Forecast

Advertisements
Track Severe Weather on mobile